createdAt,value
2023-03-01T00:00:35.628Z,61.06
2023-03-01T00:04:04.985Z,61.22
2023-03-01T00:07:31.652Z,61.31
2023-03-01T00:11:08.038Z,61.29
2023-03-01T00:14:34.935Z,61.40
2023-03-01T00:18:02.024Z,61.43
2023-03-01T00:21:32.326Z,61.44
2023-03-01T00:25:04.119Z,61.56
2023-03-01T00:28:31.200Z,61.57
2023-03-01T00:31:57.750Z,61.68
2023-03-01T00:35:25.480Z,61.91
2023-03-01T00:38:53.685Z,61.75
2023-03-01T00:42:20.947Z,61.83
2023-03-01T00:45:48.446Z,61.86
2023-03-01T00:49:15.625Z,61.90
2023-03-01T00:52:43.479Z,61.96
2023-03-01T00:56:13.269Z,62.11
2023-03-01T00:59:41.346Z,62.05
2023-03-01T01:03:15.193Z,62.18
2023-03-01T01:06:50.679Z,62.25
2023-03-01T01:10:19.183Z,62.10
2023-03-01T01:13:46.579Z,62.16
2023-03-01T01:17:13.490Z,62.09
2023-03-01T01:20:41.224Z,62.12
2023-03-01T01:24:09.882Z,62.05
2023-03-01T01:27:37.558Z,62.13
2023-03-01T01:31:04.321Z,62.23
2023-03-01T01:34:30.932Z,62.27
2023-03-01T01:37:58.174Z,62.18
2023-03-01T01:41:27.182Z,62.29
2023-03-01T01:45:33.361Z,62.42
2023-03-01T01:49:04.677Z,62.31
2023-03-01T01:52:37.544Z,62.40
2023-03-01T01:56:09.324Z,62.34
2023-03-01T01:59:37.389Z,62.57
2023-03-01T02:03:07.545Z,62.49
2023-03-01T02:06:39.319Z,62.74
2023-03-01T02:10:07.408Z,62.60
2023-03-01T02:13:34.979Z,62.62
2023-03-01T02:17:02.991Z,62.62
2023-03-01T02:20:36.013Z,62.70
2023-03-01T02:24:13.049Z,62.74
2023-03-01T02:27:46.692Z,62.70
2023-03-01T02:31:38.516Z,62.77
2023-03-01T02:35:07.837Z,62.83
2023-03-01T02:38:34.693Z,62.86
2023-03-01T02:42:01.850Z,62.96
2023-03-01T02:45:29.921Z,62.94
2023-03-01T02:49:00.043Z,63.00
2023-03-01T02:52:42.198Z,63.09
2023-03-01T02:56:14.160Z,63.20
2023-03-01T02:59:43.887Z,63.27
2023-03-01T03:03:11.009Z,63.33
2023-03-01T03:06:38.262Z,63.34
2023-03-01T03:10:05.949Z,63.33
2023-03-01T03:13:33.458Z,63.24
2023-03-01T03:17:00.405Z,63.32
2023-03-01T03:20:29.884Z,63.17
2023-03-01T03:23:58.377Z,63.21
2023-03-01T03:27:26.035Z,63.24
2023-03-01T03:30:52.748Z,63.18
2023-03-01T03:34:19.421Z,63.18
2023-03-01T03:38:04.648Z,63.19
2023-03-01T03:41:31.434Z,63.18
2023-03-01T03:44:58.487Z,63.29
2023-03-01T03:48:25.859Z,63.41
2023-03-01T03:51:52.820Z,63.47
2023-03-01T03:55:20.856Z,63.38
2023-03-01T03:58:48.177Z,63.49
2023-03-01T04:02:23.439Z,63.42
2023-03-01T04:05:51.793Z,63.51
2023-03-01T04:09:18.357Z,63.65
2023-03-01T04:12:46.020Z,63.56
2023-03-01T04:16:12.503Z,63.56
2023-03-01T04:19:39.322Z,63.65
2023-03-01T04:23:14.566Z,63.76
2023-03-01T04:26:41.865Z,63.90
2023-03-01T04:30:12.203Z,64.04
2023-03-01T04:33:39.766Z,64.11
2023-03-01T04:37:06.270Z,64.32
2023-03-01T04:40:34.534Z,64.36
2023-03-01T04:44:01.765Z,64.34
2023-03-01T04:47:28.323Z,64.42
2023-03-01T04:50:54.984Z,64.49
2023-03-01T04:54:22.155Z,64.68
2023-03-01T04:57:49.826Z,64.71
2023-03-01T05:01:20.025Z,64.54
2023-03-01T05:04:47.315Z,64.39
2023-03-01T05:08:18.652Z,64.26
2023-03-01T05:11:45.815Z,64.25
2023-03-01T05:15:14.516Z,64.13
2023-03-01T05:18:42.871Z,64.21
2023-03-01T05:22:09.377Z,64.09
2023-03-01T05:25:41.598Z,64.24
2023-03-01T05:29:11.010Z,64.21
2023-03-01T05:32:40.174Z,64.26
2023-03-01T05:36:09.435Z,64.29
2023-03-01T05:39:36.246Z,64.41
2023-03-01T05:43:06.361Z,64.38
2023-03-01T05:46:32.960Z,64.32
2023-03-01T05:50:00.012Z,64.44
2023-03-01T05:53:27.732Z,64.30
2023-03-01T05:56:54.879Z,64.36
2023-03-01T06:00:24.436Z,64.51
2023-03-01T06:03:51.079Z,64.41
2023-03-01T06:07:17.789Z,64.47
2023-03-01T06:10:44.983Z,64.45
2023-03-01T06:14:16.051Z,64.55
2023-03-01T06:17:45.254Z,64.60
2023-03-01T06:21:12.028Z,64.64
2023-03-01T06:24:38.650Z,64.59
2023-03-01T06:28:05.706Z,64.89
2023-03-01T06:31:32.740Z,64.80
2023-03-01T06:34:59.786Z,64.84
2023-03-01T06:38:26.767Z,65.05
2023-03-01T06:41:54.295Z,65.21
2023-03-01T06:45:23.364Z,65.27
2023-03-01T06:48:52.427Z,65.55
2023-03-01T06:52:20.780Z,65.54
2023-03-01T06:55:49.237Z,65.51
2023-03-01T06:59:16.556Z,65.45
2023-03-01T07:02:43.531Z,65.40
2023-03-01T07:06:11.794Z,65.49
2023-03-01T07:09:38.750Z,65.37
2023-03-01T07:13:07.945Z,65.43
2023-03-01T07:16:35.659Z,65.47
2023-03-01T07:20:02.859Z,65.43
2023-03-01T07:23:29.658Z,65.57
2023-03-01T07:26:56.684Z,65.54
2023-03-01T07:30:23.724Z,65.63
2023-03-01T07:33:50.927Z,65.76
2023-03-01T07:37:17.889Z,65.82
2023-03-01T07:40:44.765Z,65.89
2023-03-01T07:44:13.815Z,65.99
2023-03-01T07:47:40.678Z,66.10
2023-03-01T07:51:09.985Z,66.19
2023-03-01T07:54:38.113Z,66.32
2023-03-01T07:58:04.812Z,66.17
2023-03-01T08:01:31.619Z,66.29
2023-03-01T08:04:58.460Z,66.28
2023-03-01T08:08:25.873Z,66.45
2023-03-01T08:11:53.681Z,66.45
2023-03-01T08:15:21.336Z,66.80
2023-03-01T08:18:48.000Z,66.77
2023-03-01T08:22:14.606Z,66.80
2023-03-01T08:25:42.010Z,66.97
2023-03-01T08:29:08.972Z,67.03
2023-03-01T08:32:40.014Z,67.06
2023-03-01T08:36:11.398Z,67.07
2023-03-01T08:39:38.438Z,67.14
2023-03-01T08:43:05.137Z,67.11
2023-03-01T08:46:34.030Z,66.99
2023-03-01T08:50:02.144Z,67.07
2023-03-01T08:53:28.922Z,66.93
2023-03-01T08:56:55.911Z,67.02
2023-03-01T09:00:27.146Z,66.87
2023-03-01T09:03:53.894Z,67.02
2023-03-01T09:07:20.698Z,67.11
2023-03-01T09:10:50.321Z,67.01
2023-03-01T09:14:17.509Z,67.04
2023-03-01T09:17:44.039Z,67.18
2023-03-01T09:21:13.125Z,67.08
2023-03-01T09:24:40.850Z,67.23
2023-03-01T09:28:27.570Z,67.15
2023-03-01T09:31:56.945Z,67.02
2023-03-01T09:35:24.136Z,67.10
2023-03-01T09:38:54.212Z,67.21
2023-03-01T09:42:21.645Z,67.14
2023-03-01T09:45:52.419Z,67.05
2023-03-01T09:49:25.667Z,67.34
2023-03-01T09:52:57.184Z,66.92
2023-03-01T09:56:27.897Z,67.23
2023-03-01T10:00:13.843Z,67.00
2023-03-01T10:03:46.530Z,67.04
2023-03-01T10:07:29.827Z,66.82
2023-03-01T10:10:57.780Z,67.10
2023-03-01T10:14:34.305Z,66.97
2023-03-01T10:18:08.757Z,66.81
2023-03-01T10:21:43.671Z,66.54
2023-03-01T10:25:15.570Z,66.56
2023-03-01T10:28:53.091Z,66.53
2023-03-01T10:32:25.046Z,66.56
2023-03-01T10:35:52.152Z,66.40
2023-03-01T10:39:22.000Z,66.46
2023-03-01T10:42:52.845Z,66.23
2023-03-01T10:46:31.075Z,66.17
2023-03-01T10:50:03.059Z,66.15
2023-03-01T10:53:34.625Z,65.98
2023-03-01T10:57:03.846Z,66.06
2023-03-01T11:00:31.454Z,66.05
2023-03-01T11:04:16.108Z,65.95
2023-03-01T11:07:53.105Z,66.00
2023-03-01T11:11:32.574Z,65.65
2023-03-01T11:15:01.482Z,65.48
2023-03-01T11:18:45.825Z,65.58
2023-03-01T11:22:20.813Z,65.43
2023-03-01T11:25:54.208Z,64.82
2023-03-01T11:29:43.224Z,65.08
2023-03-01T11:33:24.315Z,64.85
2023-03-01T11:36:56.347Z,64.58
2023-03-01T11:40:28.413Z,64.66
2023-03-01T11:44:02.023Z,64.84
2023-03-01T11:47:42.253Z,64.38
2023-03-01T11:51:18.451Z,64.38
2023-03-01T11:55:00.258Z,64.37
2023-03-01T11:58:44.679Z,64.20
2023-03-01T12:02:37.563Z,64.16
2023-03-01T12:06:25.313Z,63.92
2023-03-01T12:10:15.389Z,63.53
2023-03-01T12:14:15.277Z,63.81
2023-03-01T12:18:00.859Z,63.85
2023-03-01T12:21:42.225Z,63.58
2023-03-01T12:25:23.414Z,63.54
2023-03-01T12:29:09.045Z,63.11
2023-03-01T12:32:53.882Z,63.08
2023-03-01T12:36:34.143Z,63.09
2023-03-01T12:40:19.473Z,62.82
2023-03-01T12:43:59.712Z,62.70
2023-03-01T12:47:38.881Z,62.62
2023-03-01T12:51:12.099Z,62.46
2023-03-01T12:54:40.766Z,62.34
2023-03-01T12:58:22.466Z,62.26
2023-03-01T13:01:59.144Z,62.07
2023-03-01T13:05:37.707Z,61.90
2023-03-01T13:09:11.981Z,61.85
2023-03-01T13:12:53.888Z,61.64
2023-03-01T13:16:46.300Z,61.47
2023-03-01T13:20:19.737Z,61.28
2023-03-01T13:23:50.316Z,61.10
2023-03-01T13:27:30.508Z,60.87
2023-03-01T13:30:57.298Z,60.85
2023-03-01T13:34:47.796Z,60.62
2023-03-01T13:38:56.382Z,60.22
2023-03-01T13:42:48.159Z,60.25
2023-03-01T13:46:23.163Z,59.76
2023-03-01T13:49:54.729Z,59.99
2023-03-01T13:53:25.247Z,59.72
2023-03-01T13:56:53.347Z,59.25
2023-03-01T14:00:38.762Z,59.35
2023-03-01T14:04:21.037Z,59.10
2023-03-01T14:07:55.003Z,58.86
2023-03-01T14:11:56.045Z,58.84
2023-03-01T14:15:30.516Z,58.47
2023-03-01T14:19:12.722Z,58.25
2023-03-01T14:22:43.206Z,58.12
2023-03-01T14:26:10.730Z,57.88
2023-03-01T14:29:42.405Z,57.67
2023-03-01T14:33:21.448Z,57.82
2023-03-01T14:36:48.222Z,57.67
2023-03-01T14:40:29.488Z,57.71
2023-03-01T14:43:59.792Z,57.49
2023-03-01T14:47:32.285Z,57.57
2023-03-01T14:51:01.261Z,57.35
2023-03-01T14:54:37.651Z,57.07
2023-03-01T14:58:07.791Z,57.13
2023-03-01T15:01:34.788Z,57.07
2023-03-01T15:05:08.564Z,57.07
2023-03-01T15:08:37.720Z,57.09
2023-03-01T15:12:24.954Z,57.10
2023-03-01T15:15:53.244Z,56.97
2023-03-01T15:19:22.894Z,57.10
2023-03-01T15:22:50.387Z,57.03
2023-03-01T15:26:30.484Z,57.07
2023-03-01T15:30:00.343Z,57.05
2023-03-01T15:33:37.282Z,56.92
2023-03-01T15:37:09.882Z,57.02
2023-03-01T15:40:39.368Z,56.88
2023-03-01T15:44:19.582Z,57.09
2023-03-01T15:47:52.501Z,56.93
2023-03-01T15:51:18.050Z,57.05
2023-03-01T15:54:45.213Z,57.03
2023-03-01T15:58:17.803Z,56.82
2023-03-01T16:01:45.663Z,57.14
2023-03-01T16:05:21.447Z,57.04
2023-03-01T16:08:48.661Z,57.11
2023-03-01T16:12:19.015Z,57.15
2023-03-01T16:15:49.905Z,56.93
2023-03-01T16:19:17.015Z,56.98
2023-03-01T16:22:44.942Z,57.05
2023-03-01T16:26:12.495Z,57.22
2023-03-01T16:29:39.163Z,57.26
2023-03-01T16:33:28.822Z,57.18
2023-03-01T16:36:56.765Z,57.24
2023-03-01T16:40:25.790Z,57.12
2023-03-01T16:43:53.362Z,57.24
2023-03-01T16:47:20.826Z,57.13
2023-03-01T16:50:57.769Z,57.35
2023-03-01T16:54:24.819Z,57.17
2023-03-01T16:57:57.239Z,57.21
2023-03-01T17:01:27.124Z,57.39
2023-03-01T17:04:59.535Z,57.42
2023-03-01T17:08:31.193Z,57.28
2023-03-01T17:11:59.166Z,57.46
2023-03-01T17:15:26.550Z,57.60
2023-03-01T17:18:59.043Z,57.65
2023-03-01T17:22:28.562Z,57.49
2023-03-01T17:25:56.200Z,57.67
2023-03-01T17:29:23.650Z,57.53
2023-03-01T17:32:51.113Z,57.67
2023-03-01T17:36:19.535Z,57.82
2023-03-01T17:39:47.059Z,57.86
2023-03-01T17:43:14.363Z,58.37
2023-03-01T17:46:49.011Z,58.38
2023-03-01T17:50:18.837Z,58.57
2023-03-01T17:53:49.534Z,58.43
2023-03-01T17:57:22.564Z,58.49
2023-03-01T18:00:51.318Z,58.15
2023-03-01T18:04:19.396Z,58.24
2023-03-01T18:07:49.179Z,58.57
2023-03-01T18:11:16.722Z,58.70
2023-03-01T18:14:44.076Z,58.94
2023-03-01T18:18:11.098Z,59.00
2023-03-01T18:21:38.936Z,59.10
2023-03-01T18:25:12.071Z,59.45
2023-03-01T18:28:40.376Z,59.39
2023-03-01T18:32:08.116Z,59.38
2023-03-01T18:35:40.561Z,59.58
2023-03-01T18:39:11.415Z,59.52
2023-03-01T18:42:40.802Z,59.44
2023-03-01T18:46:09.868Z,59.55
2023-03-01T18:49:38.265Z,59.63
2023-03-01T18:53:10.268Z,59.93
2023-03-01T18:56:41.027Z,59.89
2023-03-01T19:00:12.244Z,60.26
2023-03-01T19:03:40.412Z,60.18
2023-03-01T19:07:08.697Z,60.40
2023-03-01T19:10:36.260Z,60.37
2023-03-01T19:14:05.504Z,60.60
2023-03-01T19:17:32.646Z,60.71
2023-03-01T19:21:04.117Z,60.77
2023-03-01T19:24:33.117Z,60.89
2023-03-01T19:28:01.597Z,60.76
2023-03-01T19:31:31.846Z,60.94
2023-03-01T19:34:58.527Z,61.02
2023-03-01T19:38:30.562Z,61.21
2023-03-01T19:42:02.313Z,61.22
2023-03-01T19:45:33.577Z,61.46
2023-03-01T19:49:03.305Z,61.55
2023-03-01T19:52:40.116Z,61.34
2023-03-01T19:56:09.039Z,61.60
2023-03-01T19:59:36.699Z,61.65
2023-03-01T20:03:04.463Z,61.66
2023-03-01T20:06:33.672Z,61.59
2023-03-01T20:10:09.415Z,61.38
2023-03-01T20:13:40.118Z,61.45
2023-03-01T20:17:08.162Z,61.55
2023-03-01T20:20:35.666Z,61.58
2023-03-01T20:24:05.677Z,61.74
2023-03-01T20:27:33.040Z,61.77
2023-03-01T20:31:06.896Z,61.80
2023-03-01T20:34:34.712Z,61.87
2023-03-01T20:38:03.793Z,61.90
2023-03-01T20:41:32.098Z,61.99
2023-03-01T20:44:59.151Z,62.10
2023-03-01T20:48:27.703Z,62.21
2023-03-01T20:51:59.688Z,62.48
2023-03-01T20:55:26.968Z,62.43
2023-03-01T20:58:55.850Z,62.48
2023-03-01T21:02:22.797Z,62.59
2023-03-01T21:05:51.432Z,62.64
2023-03-01T21:09:17.963Z,62.82
2023-03-01T21:12:44.711Z,62.72
2023-03-01T21:16:16.111Z,62.87
2023-03-01T21:19:47.060Z,63.04
2023-03-01T21:23:14.674Z,63.11
2023-03-01T21:26:41.767Z,63.00
2023-03-01T21:30:10.814Z,63.03
2023-03-01T21:33:42.691Z,63.10
2023-03-01T21:37:13.896Z,63.07
2023-03-01T21:40:43.419Z,63.05
2023-03-01T21:44:11.261Z,63.10
2023-03-01T21:47:39.629Z,63.03
2023-03-01T21:51:07.804Z,63.10
2023-03-01T21:54:35.207Z,63.09
2023-03-01T21:58:03.297Z,63.12
2023-03-01T22:01:41.585Z,63.30
2023-03-01T22:05:12.865Z,63.25
2023-03-01T22:08:39.806Z,63.33
2023-03-01T22:12:08.973Z,63.36
2023-03-01T22:15:36.657Z,63.22
2023-03-01T22:19:04.525Z,63.42
2023-03-01T22:22:35.520Z,63.55
2023-03-01T22:26:04.486Z,63.50
2023-03-01T22:29:33.267Z,63.61
2023-03-01T22:33:00.658Z,63.64
2023-03-01T22:36:31.554Z,63.82
2023-03-01T22:40:00.842Z,64.09
2023-03-01T22:43:28.403Z,64.52
2023-03-01T22:46:56.986Z,64.61
2023-03-01T22:50:24.336Z,64.97
2023-03-01T22:53:57.041Z,65.33
2023-03-01T22:57:24.279Z,65.54
2023-03-01T23:00:53.101Z,65.51
2023-03-01T23:04:20.946Z,65.66
2023-03-01T23:07:52.183Z,65.78
2023-03-01T23:11:22.441Z,66.06
2023-03-01T23:14:49.273Z,66.04
2023-03-01T23:18:19.051Z,65.99
2023-03-01T23:21:50.622Z,66.14
2023-03-01T23:25:18.584Z,66.29
2023-03-01T23:28:46.198Z,66.35
2023-03-01T23:32:17.445Z,66.50
2023-03-01T23:35:44.937Z,66.48
2023-03-01T23:39:13.868Z,66.49
2023-03-01T23:42:41.977Z,66.64
2023-03-01T23:46:14.663Z,66.70
2023-03-01T23:49:43.752Z,66.71
2023-03-01T23:53:12.382Z,66.68
2023-03-01T23:56:43.593Z,66.88
